Time;durP1;ratioP1;P1;durP2;ratioP2;P2;SDS_P1;SDS_P2;PMS_P1;PMS_P2;Temp;Humidity;BMP_temperature;BMP_pressure;BME280_temperature;BME280_humidity;BME280_pressure;Samples;Min_cycle;Max_cycle;Signal;HPM_P1;HPM_P2
2022/02/14 00:02:26;;;;;;;6.40;3.90;;;9.30;99.90;;;;;;5078919;28;20210;-67
2022/02/14 00:04:52;;;;;;;6.27;4.17;;;9.30;99.90;;;;;;5067470;28;20194;-67
2022/02/14 00:07:19;;;;;;;7.87;4.10;;;9.40;99.90;;;;;;5069539;28;20301;-67
2022/02/14 00:09:46;;;;;;;5.37;4.40;;;9.40;99.90;;;;;;5079100;28;20186;-67
2022/02/14 00:12:13;;;;;;;5.77;4.17;;;9.40;99.90;;;;;;5089137;28;20262;-68
2022/02/14 00:14:39;;;;;;;8.63;4.50;;;9.40;99.90;;;;;;5075067;28;20187;-67
2022/02/14 00:17:05;;;;;;;6.80;4.43;;;9.40;99.90;;;;;;5079002;28;20309;-68
2022/02/14 00:19:32;;;;;;;6.47;4.17;;;9.40;99.90;;;;;;5073919;28;20232;-68
2022/02/14 00:21:58;;;;;;;6.40;4.40;;;9.50;99.90;;;;;;5075430;28;20683;-68
2022/02/14 00:24:24;;;;;;;5.17;4.50;;;9.50;99.90;;;;;;5066241;28;20178;-68
2022/02/14 00:26:53;;;;;;;11.03;4.20;;;9.50;99.90;;;;;;5073222;28;20270;-67
2022/02/14 00:29:23;;;;;;;5.67;3.90;;;9.50;99.90;;;;;;5075903;28;20190;-68
2022/02/14 00:31:50;;;;;;;6.20;4.17;;;9.60;99.90;;;;;;5070583;28;20186;-68
2022/02/14 00:34:16;;;;;;;5.27;3.87;;;9.60;99.90;;;;;;5081257;28;20549;-68
2022/02/14 00:36:43;;;;;;;8.67;4.77;;;9.70;99.90;;;;;;5074759;28;20171;-68
2022/02/14 00:39:11;;;;;;;6.07;4.23;;;9.70;99.90;;;;;;5063098;28;20186;-68
2022/02/14 00:41:37;;;;;;;8.33;4.30;;;9.70;99.90;;;;;;5077594;28;20277;-68
2022/02/14 00:44:04;;;;;;;9.10;5.00;;;9.70;99.90;;;;;;5072956;28;20690;-68
2022/02/14 00:46:30;;;;;;;5.67;4.60;;;9.70;99.90;;;;;;5063418;28;20198;-68
2022/02/14 00:48:56;;;;;;;11.00;5.00;;;9.70;99.90;;;;;;5079766;28;20187;-68
2022/02/14 00:51:23;;;;;;;14.10;5.10;;;9.70;99.90;;;;;;5070090;28;20723;-68
2022/02/14 00:53:49;;;;;;;7.60;4.77;;;9.70;99.90;;;;;;5070927;28;20186;-68
2022/02/14 00:56:15;;;;;;;7.07;5.00;;;9.70;99.90;;;;;;5062985;28;20648;-67
2022/02/14 00:58:42;;;;;;;8.87;4.80;;;9.70;99.90;;;;;;5060229;28;20183;-68
2022/02/14 01:01:08;;;;;;;9.90;5.40;;;9.70;99.90;;;;;;5065073;28;20543;-68
2022/02/14 01:03:34;;;;;;;6.67;3.73;;;9.70;99.90;;;;;;5081266;28;20225;-68
2022/02/14 01:06:01;;;;;;;7.43;4.50;;;9.80;99.90;;;;;;5079564;28;20194;-68
2022/02/14 01:08:27;;;;;;;5.50;4.07;;;9.80;99.90;;;;;;5079935;28;20386;-68
2022/02/14 01:10:53;;;;;;;7.80;4.50;;;9.80;99.90;;;;;;5065479;28;20190;-68
2022/02/14 01:13:19;;;;;;;8.50;4.23;;;9.80;99.90;;;;;;5071057;28;20197;-68
2022/02/14 01:15:46;;;;;;;12.87;4.30;;;9.80;99.90;;;;;;5062813;28;20305;-68
2022/02/14 01:18:12;;;;;;;8.27;3.63;;;9.70;99.90;;;;;;5066990;28;20735;-68
2022/02/14 01:20:38;;;;;;;6.07;3.43;;;9.70;99.90;;;;;;5059653;28;20630;-68
2022/02/14 01:23:05;;;;;;;6.90;3.07;;;9.80;99.90;;;;;;5081240;28;20300;-69
2022/02/14 01:25:31;;;;;;;7.57;3.70;;;9.90;99.90;;;;;;5071555;28;20201;-68
2022/02/14 01:27:57;;;;;;;13.03;3.60;;;9.90;99.90;;;;;;5068676;28;20635;-68
2022/02/14 01:30:24;;;;;;;7.07;3.40;;;9.90;99.90;;;;;;5066805;28;20906;-68
2022/02/14 01:32:50;;;;;;;4.93;3.30;;;9.90;99.90;;;;;;5076505;28;20206;-68
2022/02/14 01:35:16;;;;;;;12.23;4.00;;;9.80;99.90;;;;;;5063620;28;20484;-68
2022/02/14 01:37:43;;;;;;;8.03;3.30;;;9.80;99.90;;;;;;5066434;28;20600;-68
2022/02/14 01:40:12;;;;;;;10.67;3.43;;;9.80;99.90;;;;;;5081840;28;20552;-68
2022/02/14 01:42:39;;;;;;;6.87;3.43;;;9.80;99.90;;;;;;5051041;28;20203;-68
2022/02/14 01:45:09;;;;;;;7.77;3.40;;;9.80;99.90;;;;;;5082661;28;20197;-68
2022/02/14 01:47:36;;;;;;;9.17;3.23;;;9.80;99.90;;;;;;5080479;28;20239;-69
2022/02/14 01:50:04;;;;;;;11.87;5.23;;;9.90;99.90;;;;;;5082396;28;20197;-68
2022/02/14 01:52:35;;;;;;;10.00;3.93;;;9.90;99.90;;;;;;5081626;28;20198;-68
2022/02/14 01:55:04;;;;;;;8.60;3.80;;;10.00;99.90;;;;;;5071525;28;20285;-68
2022/02/14 01:57:31;;;;;;;9.60;3.80;;;10.00;99.90;;;;;;5074638;28;20562;-68
2022/02/14 01:59:58;;;;;;;8.73;3.80;;;10.00;99.90;;;;;;5074164;28;20190;-67
2022/02/14 02:02:26;;;;;;;10.93;3.77;;;10.10;99.90;;;;;;5072825;28;20936;-68
2022/02/14 02:04:52;;;;;;;9.07;3.70;;;10.10;99.90;;;;;;5068535;28;20684;-67
2022/02/14 02:07:19;;;;;;;7.63;3.20;;;10.10;99.90;;;;;;5056300;28;20183;-68
2022/02/14 02:09:46;;;;;;;7.57;3.30;;;10.10;99.90;;;;;;5085214;28;20593;-68
2022/02/14 02:12:22;;;;;;;8.57;3.43;;;10.10;99.90;;;;;;5076843;28;20286;-68
2022/02/14 02:15:02;;;;;;;7.97;3.33;;;10.10;99.90;;;;;;5104287;28;20891;-68
2022/02/14 02:17:32;;;;;;;13.20;3.90;;;10.10;99.90;;;;;;5067855;28;20200;-68
2022/02/14 02:20:00;;;;;;;9.93;3.80;;;10.20;99.90;;;;;;5083446;28;20190;-68
2022/02/14 02:22:26;;;;;;;9.97;4.40;;;10.20;99.90;;;;;;5076307;28;20229;-69
2022/02/14 02:24:56;;;;;;;9.77;4.10;;;10.20;99.90;;;;;;5083644;28;20185;-68
2022/02/14 02:27:27;;;;;;;7.77;3.67;;;10.20;99.90;;;;;;5075022;28;20193;-68
2022/02/14 02:29:56;;;;;;;6.10;3.80;;;10.20;99.90;;;;;;5078060;28;20307;-68
2022/02/14 02:32:24;;;;;;;7.83;3.77;;;10.20;99.90;;;;;;5073202;28;20214;-68
2022/02/14 02:34:51;;;;;;;13.90;4.53;;;10.20;99.90;;;;;;5082646;28;20202;-68
2022/02/14 02:37:18;;;;;;;11.80;3.97;;;10.20;99.90;;;;;;5085291;28;20193;-68
2022/02/14 02:39:45;;;;;;;7.23;3.90;;;10.20;99.90;;;;;;5079410;28;20179;-68
2022/02/14 02:42:15;;;;;;;13.07;4.50;;;10.20;99.90;;;;;;5077819;28;20215;-68
2022/02/14 02:44:43;;;;;;;13.50;3.77;;;10.20;99.90;;;;;;5072247;28;20178;-68
2022/02/14 02:47:14;;;;;;;6.90;4.27;;;10.20;99.90;;;;;;5070659;28;20202;-68
2022/02/14 02:49:42;;;;;;;7.53;4.00;;;10.20;99.90;;;;;;5069659;28;20186;-68
2022/02/14 02:52:11;;;;;;;11.67;3.90;;;10.10;99.90;;;;;;5062458;28;20186;-68
2022/02/14 02:54:38;;;;;;;8.20;4.03;;;10.20;99.90;;;;;;5078164;28;20191;-68
2022/02/14 02:57:05;;;;;;;6.87;4.53;;;10.10;99.90;;;;;;5074333;28;20177;-68
2022/02/14 02:59:34;;;;;;;14.03;4.77;;;10.10;99.90;;;;;;5067013;28;20190;-68
2022/02/14 03:02:06;;;;;;;8.00;4.50;;;10.10;99.90;;;;;;5081306;28;20219;-68
2022/02/14 03:04:33;;;;;;;13.67;4.83;;;10.10;99.90;;;;;;5073927;28;20186;-68
2022/02/14 03:07:00;;;;;;;9.23;4.47;;;10.10;99.90;;;;;;5079990;28;20228;-68
2022/02/14 03:09:27;;;;;;;8.80;4.47;;;10.10;99.90;;;;;;5084257;28;20232;-68
2022/02/14 03:11:56;;;;;;;11.33;5.00;;;10.10;99.90;;;;;;5082957;28;20193;-68
2022/02/14 03:14:23;;;;;;;9.73;4.77;;;10.10;99.90;;;;;;5079579;28;20190;-68
2022/02/14 03:16:49;;;;;;;16.10;5.23;;;10.10;99.90;;;;;;5079670;28;20182;-69
2022/02/14 03:19:15;;;;;;;14.37;4.70;;;10.10;99.90;;;;;;5085632;28;20194;-68
2022/02/14 03:21:42;;;;;;;14.90;5.23;;;10.10;99.90;;;;;;5085211;28;20178;-68
2022/02/14 03:24:08;;;;;;;14.00;4.80;;;10.10;99.90;;;;;;5075031;28;20244;-68
2022/02/14 03:26:35;;;;;;;13.20;5.07;;;10.10;99.90;;;;;;5079794;28;20201;-68
2022/02/14 03:29:02;;;;;;;10.53;5.13;;;10.10;99.90;;;;;;5077917;28;20182;-68
2022/02/14 03:31:30;;;;;;;10.77;5.13;;;10.10;99.90;;;;;;5084788;28;20197;-68
2022/02/14 03:33:56;;;;;;;7.87;4.93;;;10.10;99.90;;;;;;5084002;28;20221;-68
2022/02/14 03:36:23;;;;;;;12.73;5.20;;;10.10;99.90;;;;;;5080966;28;20705;-68
2022/02/14 03:38:51;;;;;;;8.37;4.93;;;10.10;99.90;;;;;;5096016;28;20179;-69
2022/02/14 03:41:18;;;;;;;11.37;5.73;;;10.10;99.90;;;;;;5030907;28;1533745;-68
2022/02/14 03:43:45;;;;;;;12.07;5.67;;;10.10;99.90;;;;;;5080832;28;20210;-68
2022/02/14 03:46:12;;;;;;;12.13;5.73;;;10.10;99.90;;;;;;5070415;28;20190;-69
2022/02/14 03:48:38;;;;;;;13.07;5.83;;;10.10;99.90;;;;;;5075660;28;20183;-68
2022/02/14 03:51:05;;;;;;;15.30;5.53;;;10.20;99.90;;;;;;5071309;28;20329;-68
2022/02/14 03:53:31;;;;;;;10.97;5.30;;;10.20;99.90;;;;;;5082121;28;20276;-68
2022/02/14 03:55:58;;;;;;;12.87;5.70;;;10.20;99.90;;;;;;5080654;28;20632;-68
2022/02/14 03:58:25;;;;;;;11.80;5.20;;;10.20;99.90;;;;;;5078748;28;20191;-68
2022/02/14 04:00:51;;;;;;;13.57;5.73;;;10.20;99.90;;;;;;5074447;28;20252;-68
2022/02/14 04:03:17;;;;;;;12.33;5.03;;;10.20;99.90;;;;;;5076797;28;20213;-68
2022/02/14 04:05:45;;;;;;;9.07;5.07;;;10.20;99.90;;;;;;5076874;28;20260;-68
2022/02/14 04:08:11;;;;;;;11.23;5.30;;;10.20;99.90;;;;;;5070315;28;20187;-68
2022/02/14 04:10:37;;;;;;;9.13;5.70;;;10.20;99.90;;;;;;5071945;28;20178;-69
2022/02/14 04:13:04;;;;;;;12.50;5.47;;;10.20;99.90;;;;;;5067650;28;20189;-68
2022/02/14 04:15:33;;;;;;;14.77;5.90;;;10.20;99.90;;;;;;5071810;28;20285;-68
2022/02/14 04:17:59;;;;;;;11.23;5.63;;;10.20;99.90;;;;;;5080645;28;20225;-68
2022/02/14 04:20:25;;;;;;;11.60;5.37;;;10.20;99.90;;;;;;5085660;28;20618;-68
2022/02/14 04:22:52;;;;;;;15.00;6.30;;;10.20;99.90;;;;;;5078506;28;20210;-68
2022/02/14 04:25:18;;;;;;;12.07;5.47;;;10.20;99.90;;;;;;5079323;28;20187;-68
2022/02/14 04:27:45;;;;;;;11.90;6.07;;;10.20;99.90;;;;;;5080429;28;20178;-68
2022/02/14 04:30:13;;;;;;;18.20;6.33;;;10.20;99.90;;;;;;5077312;28;20573;-68
2022/02/14 04:32:40;;;;;;;14.97;6.13;;;10.20;99.90;;;;;;5083745;28;20296;-68
2022/02/14 04:35:08;;;;;;;15.93;6.07;;;10.20;99.90;;;;;;5073951;28;20204;-68
2022/02/14 04:37:34;;;;;;;12.37;5.33;;;10.20;99.90;;;;;;5069440;28;20203;-68
2022/02/14 04:40:01;;;;;;;13.60;5.70;;;10.10;99.90;;;;;;5073275;28;20744;-68
2022/02/14 04:42:27;;;;;;;17.47;6.03;;;10.20;99.90;;;;;;5069401;28;20271;-68
2022/02/14 04:44:54;;;;;;;12.90;5.53;;;10.20;99.90;;;;;;5065808;28;20209;-68
2022/02/14 04:47:20;;;;;;;10.10;6.00;;;10.20;99.90;;;;;;5066691;28;22040;-68
2022/02/14 04:49:46;;;;;;;9.53;5.63;;;10.20;99.90;;;;;;5082660;28;20186;-68
2022/02/14 04:52:13;;;;;;;15.77;6.23;;;10.20;99.90;;;;;;5097290;28;20203;-68
2022/02/14 04:54:39;;;;;;;10.13;5.63;;;10.20;99.90;;;;;;5073585;28;20306;-68
2022/02/14 04:57:05;;;;;;;10.93;5.90;;;10.20;99.90;;;;;;5084861;28;20186;-68
2022/02/14 04:59:32;;;;;;;10.97;6.77;;;10.20;99.90;;;;;;5084734;28;20243;-68
2022/02/14 05:01:58;;;;;;;17.43;6.57;;;10.20;99.90;;;;;;5077953;28;20715;-68
2022/02/14 05:04:25;;;;;;;10.80;6.03;;;10.20;99.90;;;;;;5065011;28;20269;-68
2022/02/14 05:06:51;;;;;;;11.53;6.10;;;10.20;99.90;;;;;;5066405;28;20255;-68
2022/02/14 05:09:17;;;;;;;14.27;6.10;;;10.20;99.90;;;;;;5077118;28;20190;-68
2022/02/14 05:11:44;;;;;;;11.77;5.73;;;10.20;99.90;;;;;;5081544;28;20205;-68
2022/02/14 05:14:10;;;;;;;15.43;6.63;;;10.30;99.90;;;;;;5063679;28;20183;-68
2022/02/14 05:16:36;;;;;;;16.00;6.30;;;10.30;99.90;;;;;;5069139;28;20446;-68
2022/02/14 05:19:03;;;;;;;12.37;5.83;;;10.30;99.90;;;;;;5064819;28;20269;-68
2022/02/14 05:21:30;;;;;;;10.80;6.20;;;10.30;99.90;;;;;;5073293;28;20182;-69
2022/02/14 05:23:56;;;;;;;12.27;6.17;;;10.30;99.90;;;;;;5066356;28;20238;-69
2022/02/14 05:26:23;;;;;;;13.07;6.00;;;10.30;99.90;;;;;;5072070;28;20189;-69
2022/02/14 05:28:54;;;;;;;16.73;6.47;;;10.20;99.90;;;;;;5074293;28;20175;-68
2022/02/14 05:31:26;;;;;;;13.27;5.53;;;10.20;99.90;;;;;;5070716;28;20179;-69
2022/02/14 05:33:52;;;;;;;13.63;6.13;;;10.20;99.90;;;;;;5063240;28;20567;-68
2022/02/14 05:36:19;;;;;;;12.60;5.67;;;10.20;99.90;;;;;;5069020;28;20194;-68
2022/02/14 05:38:46;;;;;;;11.97;6.27;;;10.20;99.90;;;;;;5066174;28;20245;-68
2022/02/14 05:41:13;;;;;;;14.57;6.00;;;10.30;99.90;;;;;;5081355;28;20194;-68
2022/02/14 05:43:39;;;;;;;13.23;6.10;;;10.30;99.90;;;;;;5066569;28;20206;-68
2022/02/14 05:46:13;;;;;;;9.73;5.73;;;10.40;99.90;;;;;;5083830;28;20261;-68
2022/02/14 05:48:44;;;;;;;12.47;6.40;;;10.50;99.90;;;;;;5077281;28;20179;-68
2022/02/14 05:51:12;;;;;;;13.20;6.03;;;10.50;99.90;;;;;;5077410;28;20596;-69
2022/02/14 05:53:40;;;;;;;20.33;6.40;;;10.50;99.90;;;;;;5083341;28;20210;-68
2022/02/14 05:56:07;;;;;;;14.93;7.37;;;10.50;99.90;;;;;;5062068;28;20191;-68
2022/02/14 05:58:34;;;;;;;15.47;6.37;;;10.50;99.90;;;;;;5091645;28;20203;-68
2022/02/14 06:01:01;;;;;;;15.67;6.43;;;10.50;99.90;;;;;;5068721;28;20201;-68
2022/02/14 06:03:28;;;;;;;18.70;6.10;;;10.50;99.90;;;;;;5079146;28;20228;-68
2022/02/14 06:05:55;;;;;;;11.80;5.30;;;10.50;99.90;;;;;;5077977;28;20365;-68
2022/02/14 06:08:21;;;;;;;11.83;5.17;;;10.50;99.90;;;;;;5082581;28;20186;-68
2022/02/14 06:10:49;;;;;;;10.30;5.93;;;10.50;99.90;;;;;;5075214;28;20193;-68
2022/02/14 06:13:16;;;;;;;10.83;5.70;;;10.40;99.90;;;;;;5080081;28;20213;-67
2022/02/14 06:15:43;;;;;;;11.50;6.00;;;10.40;99.90;;;;;;5081694;28;20182;-68
2022/02/14 06:18:10;;;;;;;14.00;6.30;;;10.50;99.90;;;;;;5063322;28;20788;-68
2022/02/14 06:20:36;;;;;;;11.53;6.13;;;10.50;99.90;;;;;;5063787;28;20278;-68
2022/02/14 06:23:03;;;;;;;11.97;6.10;;;10.50;99.90;;;;;;5059923;28;20686;-68
2022/02/14 06:25:30;;;;;;;16.10;6.07;;;10.60;99.90;;;;;;5071128;28;20789;-68
2022/02/14 06:27:56;;;;;;;10.17;6.70;;;10.60;99.90;;;;;;5098664;28;20686;-68
2022/02/14 06:30:22;;;;;;;7.50;6.00;;;10.70;99.90;;;;;;5087149;28;20961;-68
2022/02/14 06:32:50;;;;;;;10.63;6.50;;;10.80;99.90;;;;;;5080801;28;20210;-68
2022/02/14 06:35:17;;;;;;;13.93;6.47;;;10.80;99.90;;;;;;5087553;28;20174;-67
2022/02/14 06:37:43;;;;;;;18.17;7.73;;;10.90;99.90;;;;;;5071037;28;20274;-69
2022/02/14 06:40:13;;;;;;;15.87;6.40;;;10.90;99.90;;;;;;5068731;28;20187;-68
2022/02/14 06:42:41;;;;;;;19.53;7.40;;;11.00;99.90;;;;;;5066673;28;20505;-68
2022/02/14 06:45:08;;;;;;;12.07;7.37;;;11.00;99.90;;;;;;5077736;28;20178;-68
2022/02/14 06:47:34;;;;;;;13.97;6.10;;;11.00;99.90;;;;;;5081073;28;20187;-68
2022/02/14 06:50:00;;;;;;;11.23;6.77;;;11.00;99.90;;;;;;5067434;28;20249;-68
2022/02/14 06:52:27;;;;;;;10.90;6.50;;;11.00;99.90;;;;;;5065694;28;20190;-69
2022/02/14 06:54:53;;;;;;;9.53;7.20;;;11.10;99.90;;;;;;5084726;28;20236;-68
2022/02/14 06:57:19;;;;;;;14.93;6.80;;;11.10;99.90;;;;;;5077378;28;20187;-68
2022/02/14 06:59:46;;;;;;;11.70;7.17;;;11.20;99.90;;;;;;5071832;28;21023;-68
2022/02/14 07:02:12;;;;;;;12.00;7.53;;;11.20;99.90;;;;;;5086230;28;20221;-67
2022/02/14 07:04:39;;;;;;;14.17;7.47;;;11.20;99.90;;;;;;5074692;28;20178;-69
2022/02/14 07:07:05;;;;;;;16.97;7.30;;;11.20;99.90;;;;;;5080355;28;20277;-68
2022/02/14 07:09:31;;;;;;;11.23;7.13;;;11.30;99.90;;;;;;5078769;28;20187;-69
2022/02/14 07:11:58;;;;;;;12.67;8.37;;;11.30;99.90;;;;;;5087922;28;20253;-69
2022/02/14 07:14:24;;;;;;;10.50;7.13;;;11.40;99.90;;;;;;5076986;28;20198;-68
2022/02/14 07:16:51;;;;;;;11.53;7.13;;;11.50;99.90;;;;;;5070669;28;20694;-69
2022/02/14 07:19:17;;;;;;;15.30;7.00;;;11.60;99.90;;;;;;5075418;28;20201;-69
2022/02/14 07:21:43;;;;;;;10.40;7.57;;;11.60;99.90;;;;;;5071987;28;20743;-68
2022/02/14 07:24:10;;;;;;;11.43;7.07;;;11.60;99.90;;;;;;5078373;28;20214;-69
2022/02/14 07:26:36;;;;;;;11.17;7.77;;;11.60;99.90;;;;;;5077559;28;20174;-69
2022/02/14 07:29:03;;;;;;;14.33;7.57;;;11.60;99.90;;;;;;5086188;28;20197;-69
2022/02/14 07:31:30;;;;;;;10.63;7.30;;;11.60;99.90;;;;;;5068046;28;20194;-68
2022/02/14 07:33:56;;;;;;;12.07;7.53;;;11.60;99.90;;;;;;5096339;28;20225;-68
2022/02/14 07:36:22;;;;;;;12.67;7.00;;;11.70;99.90;;;;;;5062637;28;20670;-68
2022/02/14 07:38:49;;;;;;;11.30;6.93;;;11.70;99.90;;;;;;5068586;28;20182;-69
2022/02/14 07:41:15;;;;;;;12.67;7.03;;;11.70;99.90;;;;;;5065762;28;20879;-68
2022/02/14 07:43:41;;;;;;;9.00;7.13;;;11.80;99.90;;;;;;5081758;28;20339;-68
2022/02/14 07:46:08;;;;;;;13.50;7.83;;;11.80;99.90;;;;;;5077462;28;20190;-69
2022/02/14 07:48:34;;;;;;;18.07;7.33;;;11.80;99.90;;;;;;5068036;28;20191;-68
2022/02/14 07:51:01;;;;;;;16.40;6.90;;;11.90;99.90;;;;;;5050403;28;20186;-68
2022/02/14 07:53:28;;;;;;;14.77;7.17;;;11.90;99.90;;;;;;5072728;28;20190;-68
2022/02/14 07:55:54;;;;;;;11.77;7.23;;;11.90;99.90;;;;;;5078458;28;20565;-68
2022/02/14 07:58:21;;;;;;;12.77;7.17;;;11.90;99.90;;;;;;5071432;28;20226;-69
2022/02/14 08:00:47;;;;;;;15.07;7.17;;;11.90;99.90;;;;;;5077563;28;20278;-68
2022/02/14 08:03:13;;;;;;;13.27;7.73;;;11.90;99.90;;;;;;5065481;28;20297;-68
2022/02/14 08:05:39;;;;;;;15.13;7.67;;;11.90;99.90;;;;;;5084146;28;20659;-68
2022/02/14 08:08:06;;;;;;;11.50;7.60;;;11.90;99.90;;;;;;5069696;28;20200;-68
2022/02/14 08:10:32;;;;;;;14.10;8.67;;;12.00;99.90;;;;;;5080941;28;20186;-69
2022/02/14 08:12:58;;;;;;;16.80;9.60;;;12.00;99.90;;;;;;5065730;28;20191;-68
2022/02/14 08:15:25;;;;;;;16.03;8.97;;;12.10;99.90;;;;;;5070517;28;20340;-69
2022/02/14 08:17:51;;;;;;;15.83;9.47;;;12.30;99.90;;;;;;5074331;28;20240;-69
2022/02/14 08:20:18;;;;;;;22.90;10.13;;;12.40;99.90;;;;;;5070431;28;20250;-68
2022/02/14 08:22:44;;;;;;;16.17;9.77;;;12.50;99.90;;;;;;5073789;28;20292;-69
2022/02/14 08:25:11;;;;;;;10.73;9.03;;;12.40;99.90;;;;;;5066645;28;20190;-68
2022/02/14 08:27:37;;;;;;;13.27;9.03;;;12.40;99.90;;;;;;5077042;28;20182;-68
2022/02/14 08:30:05;;;;;;;18.53;9.20;;;12.40;99.90;;;;;;5057539;28;20174;-68
2022/02/14 08:32:31;;;;;;;14.43;9.70;;;12.40;99.90;;;;;;5069844;28;20304;-68
2022/02/14 08:34:57;;;;;;;16.83;9.43;;;12.40;99.90;;;;;;5078249;28;20183;-67
2022/02/14 08:37:24;;;;;;;12.73;10.27;;;12.40;99.90;;;;;;5075978;28;20182;-68
2022/02/14 08:39:51;;;;;;;17.23;9.63;;;12.40;99.90;;;;;;5070708;28;20190;-68
2022/02/14 08:42:17;;;;;;;16.37;9.00;;;12.40;99.90;;;;;;5075309;28;20220;-68
2022/02/14 08:44:44;;;;;;;17.53;10.43;;;12.40;99.90;;;;;;5076443;28;20259;-68
2022/02/14 08:47:10;;;;;;;13.23;9.40;;;12.40;99.90;;;;;;5076182;28;20246;-68
2022/02/14 08:49:37;;;;;;;13.97;10.30;;;12.40;99.90;;;;;;5081098;28;20197;-68
2022/02/14 08:52:04;;;;;;;17.20;8.87;;;12.40;99.90;;;;;;5082686;28;21084;-68
2022/02/14 08:54:31;;;;;;;13.40;9.17;;;12.40;99.90;;;;;;5064391;28;20193;-68
2022/02/14 08:56:58;;;;;;;18.13;9.47;;;12.40;99.90;;;;;;5081273;28;20748;-68
2022/02/14 08:59:25;;;;;;;13.50;9.23;;;12.40;99.90;;;;;;5070210;28;20198;-68
2022/02/14 09:01:51;;;;;;;10.77;8.67;;;12.40;99.90;;;;;;5075027;28;20194;-69
2022/02/14 09:04:18;;;;;;;15.50;9.57;;;12.40;99.90;;;;;;5070715;28;20194;-68
2022/02/14 09:06:44;;;;;;;16.27;10.23;;;12.40;99.90;;;;;;5056515;28;20580;-68
2022/02/14 09:09:12;;;;;;;15.00;10.60;;;12.40;99.90;;;;;;5063059;28;20189;-68
2022/02/14 09:11:41;;;;;;;17.73;10.83;;;12.40;99.90;;;;;;5077684;28;20195;-68
2022/02/14 09:14:09;;;;;;;14.00;10.37;;;12.40;99.90;;;;;;5083126;28;20508;-68
2022/02/14 09:16:36;;;;;;;13.83;10.63;;;12.40;99.90;;;;;;5075809;28;20960;-68
2022/02/14 09:19:02;;;;;;;15.03;10.63;;;12.50;99.90;;;;;;5084443;28;20781;-68
2022/02/14 09:21:29;;;;;;;14.10;9.40;;;12.60;99.90;;;;;;5062277;28;20190;-68
2022/02/14 09:23:56;;;;;;;14.60;9.27;;;12.70;99.90;;;;;;5076682;28;20208;-68
2022/02/14 09:26:23;;;;;;;13.20;9.03;;;12.70;99.90;;;;;;5077259;28;20186;-68
2022/02/14 09:28:50;;;;;;;11.73;8.60;;;12.60;99.90;;;;;;5074439;28;20197;-68
2022/02/14 09:31:16;;;;;;;12.07;7.70;;;12.70;99.90;;;;;;5071725;28;20202;-68
2022/02/14 09:33:46;;;;;;;10.77;7.10;;;12.70;99.90;;;;;;5075257;28;20233;-68
2022/02/14 09:36:12;;;;;;;11.33;6.03;;;12.80;99.90;;;;;;5065224;28;20267;-68
2022/02/14 09:38:39;;;;;;;12.73;6.20;;;12.90;99.90;;;;;;5067371;28;20276;-68
2022/02/14 09:41:05;;;;;;;6.97;6.23;;;13.10;99.90;;;;;;5065422;28;20186;-69
2022/02/14 09:43:35;;;;;;;18.63;6.80;;;13.20;99.90;;;;;;5081431;28;20236;-68
2022/02/14 09:46:04;;;;;;;11.03;6.03;;;13.20;99.90;;;;;;5061381;28;20186;-68
2022/02/14 09:48:32;;;;;;;17.27;6.60;;;13.30;99.90;;;;;;5074864;28;20980;-68
2022/02/14 09:50:59;;;;;;;12.97;5.47;;;13.40;99.90;;;;;;5058033;28;20537;-67
2022/02/14 09:53:30;;;;;;;8.53;4.90;;;13.40;99.90;;;;;;5074514;28;20833;-68
2022/02/14 09:55:56;;;;;;;6.20;4.60;;;13.40;99.90;;;;;;5074369;28;20182;-69
2022/02/14 09:58:22;;;;;;;8.67;4.60;;;13.40;99.90;;;;;;5076689;28;20654;-68
2022/02/14 10:00:49;;;;;;;7.13;4.87;;;13.40;99.90;;;;;;5081954;28;20197;-68
2022/02/14 10:03:19;;;;;;;11.67;4.27;;;13.50;99.90;;;;;;5075274;28;20311;-68
2022/02/14 10:05:52;;;;;;;6.93;4.43;;;13.40;99.90;;;;;;5059538;28;21022;-68
2022/02/14 10:08:25;;;;;;;7.80;4.70;;;13.50;99.90;;;;;;5078898;28;20190;-68
2022/02/14 10:11:14;;;;;;;8.97;4.97;;;13.70;99.90;;;;;;5076131;28;20195;-66
2022/02/14 10:13:43;;;;;;;9.27;4.70;;;13.80;99.90;;;;;;5077122;28;20224;-67
2022/02/14 10:16:13;;;;;;;7.17;4.27;;;13.80;99.90;;;;;;5078924;28;20225;-66
2022/02/14 10:18:42;;;;;;;7.00;3.67;;;13.70;99.90;;;;;;5072540;28;20561;-68
2022/02/14 10:21:28;;;;;;;8.00;3.90;;;13.70;99.90;;;;;;5063336;28;20190;-67
2022/02/14 10:24:10;;;;;;;7.13;4.40;;;13.60;99.90;;;;;;5078000;28;20217;-68
2022/02/14 10:26:46;;;;;;;7.10;4.60;;;13.70;99.90;;;;;;5079539;28;20178;-68
2022/02/14 10:29:30;;;;;;;10.30;4.10;;;14.00;99.90;;;;;;5082101;28;20185;-68
2022/02/14 10:32:06;;;;;;;8.60;4.27;;;14.40;99.90;;;;;;5081331;28;20186;-68
2022/02/14 10:34:39;;;;;;;5.87;3.70;;;14.70;99.90;;;;;;5077546;28;20310;-68
2022/02/14 10:37:14;;;;;;;6.17;3.63;;;15.20;99.90;;;;;;5077357;28;20197;-68
2022/02/14 10:39:44;;;;;;;6.30;3.20;;;15.50;99.90;;;;;;5073995;28;20273;-68
2022/02/14 10:42:18;;;;;;;5.67;3.53;;;15.70;99.90;;;;;;5078118;28;20269;-68
2022/02/14 10:47:48;;;;;;;5.37;3.50;;;16.00;99.90;;;;;;5082380;28;20187;-68
2022/02/14 10:50:25;;;;;;;6.57;3.40;;;16.20;99.90;;;;;;5064949;28;20198;-68
2022/02/14 10:53:00;;;;;;;5.83;3.50;;;16.10;99.90;;;;;;5078540;28;20221;-68
2022/02/14 10:55:39;;;;;;;6.67;3.20;;;16.00;99.90;;;;;;5081246;28;20218;-68
2022/02/14 10:58:05;;;;;;;5.80;3.20;;;16.40;99.90;;;;;;5078122;28;20291;-68
2022/02/14 11:00:38;;;;;;;5.30;3.47;;;16.80;99.90;;;;;;5061737;28;20197;-67
2022/02/14 11:03:11;;;;;;;5.47;3.40;;;16.80;99.90;;;;;;5073961;28;20961;-68
2022/02/14 11:05:38;;;;;;;10.60;3.90;;;16.20;99.90;;;;;;5078452;28;20189;-68
2022/02/14 11:08:08;;;;;;;4.97;3.93;;;16.10;99.90;;;;;;5073801;28;20199;-68
2022/02/14 11:10:35;;;;;;;7.73;3.73;;;15.80;99.90;;;;;;5073740;28;20208;-68
2022/02/14 11:13:02;;;;;;;6.57;3.77;;;15.50;99.90;;;;;;5080654;28;20194;-67
2022/02/14 11:15:35;;;;;;;6.83;4.13;;;15.30;99.90;;;;;;5072054;28;20666;-68
2022/02/14 11:18:26;;;;;;;6.27;3.77;;;15.10;99.90;;;;;;5072923;28;20281;-68
2022/02/14 11:20:53;;;;;;;6.70;3.83;;;14.80;99.90;;;;;;5080768;28;20183;-67
2022/02/14 11:23:21;;;;;;;8.67;3.90;;;14.70;99.90;;;;;;5075043;28;20571;-68
2022/02/14 11:25:59;;;;;;;7.67;4.00;;;14.70;99.90;;;;;;5072626;28;20182;-67
2022/02/14 11:29:05;;;;;;;6.70;3.70;;;14.60;99.90;;;;;;5064636;28;20190;-68
2022/02/14 11:31:33;;;;;;;6.57;3.90;;;14.70;99.90;;;;;;5077050;28;20215;-68
2022/02/14 11:34:03;;;;;;;8.10;4.40;;;14.70;99.90;;;;;;5068594;28;20605;-68
2022/02/14 11:36:39;;;;;;;16.10;8.90;;;14.70;99.90;;;;;;5072555;28;20284;-67
2022/02/14 11:39:10;;;;;;;8.23;4.57;;;14.80;99.90;;;;;;5072141;28;20186;-68
2022/02/14 11:41:45;;;;;;;16.07;4.70;;;14.90;99.90;;;;;;5073065;28;20498;-68
2022/02/14 11:44:22;;;;;;;5.07;4.00;;;14.90;99.90;;;;;;5071460;28;20210;-68
2022/02/14 11:46:54;;;;;;;4.63;4.00;;;14.80;99.90;;;;;;5072339;28;20245;-68
2022/02/14 11:49:49;;;;;;;9.13;5.13;;;14.90;99.90;;;;;;5069642;28;20211;-67
2022/02/14 11:52:25;;;;;;;6.90;4.83;;;15.00;99.90;;;;;;5071789;28;20178;-68
2022/02/14 11:54:53;;;;;;;6.87;3.80;;;15.20;99.90;;;;;;5083734;28;20177;-67
2022/02/14 11:57:46;;;;;;;5.33;3.57;;;15.20;99.90;;;;;;5071388;28;20197;-68
2022/02/14 12:00:26;;;;;;;8.27;3.40;;;15.00;99.90;;;;;;5067509;28;20178;-68
2022/02/14 12:03:09;;;;;;;10.40;8.73;;;15.00;99.90;;;;;;5079572;28;20194;-68
2022/02/14 12:06:00;;;;;;;11.10;7.03;;;15.10;99.90;;;;;;5073803;28;20756;-68
2022/02/14 12:08:59;;;;;;;7.63;5.27;;;15.10;99.90;;;;;;5069369;28;20206;-68
2022/02/14 12:11:48;;;;;;;5.30;4.53;;;15.10;99.90;;;;;;5064046;28;20273;-66
2022/02/14 12:14:24;;;;;;;7.83;5.60;;;15.00;99.90;;;;;;5069069;28;20208;-67
2022/02/14 12:22:44;;;;;;;9.10;6.20;;;14.60;99.90;;;;;;5069693;28;20309;-67
2022/02/14 12:25:10;;;;;;;6.67;6.07;;;14.40;99.90;;;;;;5068623;28;20190;-66
2022/02/14 12:27:37;;;;;;;7.47;5.93;;;14.30;99.90;;;;;;5076688;28;20190;-67
2022/02/14 12:30:21;;;;;;;7.20;5.20;;;14.20;99.90;;;;;;5078084;28;20190;-67
2022/02/14 12:33:11;;;;;;;8.73;6.27;;;14.10;99.90;;;;;;5074538;28;20275;-67
2022/02/14 12:36:04;;;;;;;8.03;6.60;;;14.00;99.90;;;;;;5072423;28;20183;-67
2022/02/14 12:38:38;;;;;;;7.60;6.60;;;14.00;99.90;;;;;;5071127;28;20201;-67
2022/02/14 12:41:05;;;;;;;8.17;6.87;;;14.00;99.90;;;;;;5066865;28;20195;-68
2022/02/14 12:43:43;;;;;;;12.27;7.97;;;14.00;99.90;;;;;;5068508;28;20210;-67
2022/02/14 12:46:20;;;;;;;13.20;7.67;;;14.00;99.90;;;;;;5078923;28;20645;-67
2022/02/14 12:48:55;;;;;;;9.93;8.17;;;14.00;99.90;;;;;;5076143;28;20186;-68
2022/02/14 12:51:30;;;;;;;10.73;7.90;;;14.00;99.90;;;;;;5079564;28;20242;-68
2022/02/14 12:54:06;;;;;;;11.93;9.60;;;14.10;99.90;;;;;;5081793;28;20189;-67
2022/02/14 12:56:40;;;;;;;13.93;10.97;;;14.10;99.90;;;;;;5066667;28;20181;-68
2022/02/14 12:59:12;;;;;;;16.23;10.20;;;14.10;99.90;;;;;;5075529;28;20194;-68
2022/02/14 13:01:44;;;;;;;13.90;9.87;;;14.10;99.90;;;;;;5069946;28;20190;-67